sensor_id;sensor_type;location;lat;lon;timestamp;temperature;humidity
46608;DHT22;32330;51.936;7.184;2023-04-15T03:46:36;6.00;99.90
46608;DHT22;32330;51.936;7.184;2023-04-15T03:49:05;6.00;99.90
46608;DHT22;32330;51.936;7.184;2023-04-15T03:51:33;6.00;99.90
46608;DHT22;32330;51.936;7.184;2023-04-15T03:54:02;6.00;99.90
46608;DHT22;32330;51.936;7.184;2023-04-15T03:56:30;6.00;99.90
46608;DHT22;32330;51.936;7.184;2023-04-15T03:58:58;5.90;99.90
46608;DHT22;32330;51.936;7.184;2023-04-15T04:01:27;5.90;99.90
46608;DHT22;32330;51.936;7.184;2023-04-15T04:03:56;5.90;99.90
46608;DHT22;32330;51.936;7.184;2023-04-15T04:06:24;5.90;99.90
46608;DHT22;32330;51.936;7.184;2023-04-15T04:08:53;5.90;99.90
46608;DHT22;32330;51.936;7.184;2023-04-15T04:11:21;5.90;99.90
46608;DHT22;32330;51.936;7.184;2023-04-15T04:13:49;5.80;99.90
46608;DHT22;32330;51.936;7.184;2023-04-15T04:16:18;5.90;99.90
46608;DHT22;32330;51.936;7.184;2023-04-15T04:18:46;5.80;99.90
46608;DHT22;32330;51.936;7.184;2023-04-15T04:21:15;5.80;99.90
46608;DHT22;32330;51.936;7.184;2023-04-15T04:23:44;5.80;99.90
46608;DHT22;32330;51.936;7.184;2023-04-15T04:26:12;5.70;99.90
46608;DHT22;32330;51.936;7.184;2023-04-15T04:28:40;5.80;99.90
46608;DHT22;32330;51.936;7.184;2023-04-15T04:31:08;5.70;99.90
46608;DHT22;32330;51.936;7.184;2023-04-15T04:33:36;5.80;99.90
46608;DHT22;32330;51.936;7.184;2023-04-15T04:36:05;5.70;99.90
46608;DHT22;32330;51.936;7.184;2023-04-15T04:38:34;5.70;99.90
46608;DHT22;32330;51.936;7.184;2023-04-15T04:41:03;5.70;99.90
46608;DHT22;32330;51.936;7.184;2023-04-15T04:43:31;5.60;99.90
46608;DHT22;32330;51.936;7.184;2023-04-15T04:45:59;5.60;99.90
46608;DHT22;32330;51.936;7.184;2023-04-15T04:48:27;5.60;99.90
46608;DHT22;32330;51.936;7.184;2023-04-15T04:50:55;5.50;99.90
46608;DHT22;32330;51.936;7.184;2023-04-15T04:53:24;5.50;99.90
46608;DHT22;32330;51.936;7.184;2023-04-15T04:55:53;5.50;99.90
46608;DHT22;32330;51.936;7.184;2023-04-15T04:58:21;5.50;99.90
46608;DHT22;32330;51.936;7.184;2023-04-15T05:00:50;5.50;99.90
46608;DHT22;32330;51.936;7.184;2023-04-15T05:03:18;5.50;99.90
46608;DHT22;32330;51.936;7.184;2023-04-15T05:05:46;5.40;99.90
46608;DHT22;32330;51.936;7.184;2023-04-15T05:08:15;5.40;99.90
46608;DHT22;32330;51.936;7.184;2023-04-15T05:10:43;5.40;99.90
46608;DHT22;32330;51.936;7.184;2023-04-15T05:13:12;5.40;99.90
46608;DHT22;32330;51.936;7.184;2023-04-15T05:15:40;5.40;99.90
46608;DHT22;32330;51.936;7.184;2023-04-15T05:18:09;5.40;99.90
46608;DHT22;32330;51.936;7.184;2023-04-15T05:20:37;5.40;99.90
46608;DHT22;32330;51.936;7.184;2023-04-15T05:23:05;5.50;99.90
46608;DHT22;32330;51.936;7.184;2023-04-15T05:25:35;5.50;99.90
46608;DHT22;32330;51.936;7.184;2023-04-15T05:28:03;5.50;99.90
46608;DHT22;32330;51.936;7.184;2023-04-15T05:30:33;5.50;99.90
46608;DHT22;32330;51.936;7.184;2023-04-15T05:33:01;5.50;99.90
46608;DHT22;32330;51.936;7.184;2023-04-15T05:35:29;5.50;99.90
46608;DHT22;32330;51.936;7.184;2023-04-15T05:37:57;5.60;99.90
46608;DHT22;32330;51.936;7.184;2023-04-15T05:40:25;5.60;99.90
46608;DHT22;32330;51.936;7.184;2023-04-15T05:42:54;5.70;99.90
46608;DHT22;32330;51.936;7.184;2023-04-15T05:45:22;5.70;99.90
46608;DHT22;32330;51.936;7.184;2023-04-15T05:47:51;5.70;99.90
46608;DHT22;32330;51.936;7.184;2023-04-15T05:50:21;5.80;99.90
46608;DHT22;32330;51.936;7.184;2023-04-15T05:52:49;5.80;99.90
46608;DHT22;32330;51.936;7.184;2023-04-15T05:55:17;5.80;99.90
46608;DHT22;32330;51.936;7.184;2023-04-15T05:57:45;5.90;99.90
46608;DHT22;32330;51.936;7.184;2023-04-15T06:00:14;5.90;99.90
46608;DHT22;32330;51.936;7.184;2023-04-15T06:02:42;6.00;99.90
46608;DHT22;32330;51.936;7.184;2023-04-15T06:05:11;6.00;99.90
46608;DHT22;32330;51.936;7.184;2023-04-15T06:07:40;6.10;99.90
46608;DHT22;32330;51.936;7.184;2023-04-15T06:10:09;6.10;99.90
46608;DHT22;32330;51.936;7.184;2023-04-15T06:12:38;6.20;99.90
46608;DHT22;32330;51.936;7.184;2023-04-15T06:15:07;6.20;99.90
46608;DHT22;32330;51.936;7.184;2023-04-15T06:17:36;6.30;99.90
46608;DHT22;32330;51.936;7.184;2023-04-15T06:20:05;6.40;99.90
46608;DHT22;32330;51.936;7.184;2023-04-15T06:22:36;6.40;99.90
46608;DHT22;32330;51.936;7.184;2023-04-15T06:25:05;6.50;99.90
46608;DHT22;32330;51.936;7.184;2023-04-15T06:27:34;6.60;99.90
46608;DHT22;32330;51.936;7.184;2023-04-15T06:30:02;6.60;99.90
46608;DHT22;32330;51.936;7.184;2023-04-15T06:32:31;6.60;99.90
46608;DHT22;32330;51.936;7.184;2023-04-15T06:34:59;6.70;99.90
46608;DHT22;32330;51.936;7.184;2023-04-15T06:37:28;6.80;99.90
46608;DHT22;32330;51.936;7.184;2023-04-15T06:39:58;6.80;99.90
46608;DHT22;32330;51.936;7.184;2023-04-15T06:42:26;6.90;99.90
46608;DHT22;32330;51.936;7.184;2023-04-15T06:44:55;6.90;99.90
46608;DHT22;32330;51.936;7.184;2023-04-15T06:47:23;7.00;99.90
46608;DHT22;32330;51.936;7.184;2023-04-15T06:49:51;7.10;99.90
46608;DHT22;32330;51.936;7.184;2023-04-15T06:52:19;7.10;99.90
46608;DHT22;32330;51.936;7.184;2023-04-15T06:54:48;7.20;99.90
46608;DHT22;32330;51.936;7.184;2023-04-15T06:57:17;7.30;99.90
46608;DHT22;32330;51.936;7.184;2023-04-15T06:59:45;7.30;99.90
46608;DHT22;32330;51.936;7.184;2023-04-15T07:02:13;7.40;99.90
46608;DHT22;32330;51.936;7.184;2023-04-15T07:04:43;7.50;99.90
46608;DHT22;32330;51.936;7.184;2023-04-15T07:07:11;7.60;99.90
46608;DHT22;32330;51.936;7.184;2023-04-15T07:09:41;7.60;99.90
46608;DHT22;32330;51.936;7.184;2023-04-15T07:12:09;7.80;99.90
46608;DHT22;32330;51.936;7.184;2023-04-15T07:14:38;7.70;99.90
46608;DHT22;32330;51.936;7.184;2023-04-15T07:17:08;7.90;99.90
46608;DHT22;32330;51.936;7.184;2023-04-15T07:19:36;7.90;99.90
46608;DHT22;32330;51.936;7.184;2023-04-15T07:22:04;7.90;99.90
46608;DHT22;32330;51.936;7.184;2023-04-15T07:24:33;8.00;99.90
46608;DHT22;32330;51.936;7.184;2023-04-15T07:27:01;8.00;99.90
46608;DHT22;32330;51.936;7.184;2023-04-15T07:29:30;8.10;99.90
46608;DHT22;32330;51.936;7.184;2023-04-15T07:31:59;8.10;99.90
46608;DHT22;32330;51.936;7.184;2023-04-15T07:34:28;8.20;99.90
46608;DHT22;32330;51.936;7.184;2023-04-15T07:36:56;8.30;99.90
46608;DHT22;32330;51.936;7.184;2023-04-15T07:39:24;8.30;99.90
46608;DHT22;32330;51.936;7.184;2023-04-15T07:41:53;8.30;99.90
46608;DHT22;32330;51.936;7.184;2023-04-15T07:44:21;8.40;99.90
46608;DHT22;32330;51.936;7.184;2023-04-15T07:46:49;8.50;99.90
46608;DHT22;32330;51.936;7.184;2023-04-15T07:49:18;8.50;99.90
46608;DHT22;32330;51.936;7.184;2023-04-15T07:51:47;8.60;99.90
46608;DHT22;32330;51.936;7.184;2023-04-15T07:54:16;8.70;99.90
46608;DHT22;32330;51.936;7.184;2023-04-15T07:56:44;8.80;99.90
46608;DHT22;32330;51.936;7.184;2023-04-15T07:59:13;8.90;99.90
46608;DHT22;32330;51.936;7.184;2023-04-15T08:01:43;8.90;99.90
46608;DHT22;32330;51.936;7.184;2023-04-15T08:04:11;9.00;99.30
46608;DHT22;32330;51.936;7.184;2023-04-15T08:06:41;9.00;99.90
46608;DHT22;32330;51.936;7.184;2023-04-15T08:09:10;9.10;99.90
46608;DHT22;32330;51.936;7.184;2023-04-15T08:11:39;9.20;98.60
46608;DHT22;32330;51.936;7.184;2023-04-15T08:14:07;9.30;98.20
46608;DHT22;32330;51.936;7.184;2023-04-15T08:16:36;9.40;96.80
46608;DHT22;32330;51.936;7.184;2023-04-15T08:19:04;9.50;97.00
46608;DHT22;32330;51.936;7.184;2023-04-15T08:21:33;9.50;95.80
46608;DHT22;32330;51.936;7.184;2023-04-15T08:24:02;9.40;97.20
46608;DHT22;32330;51.936;7.184;2023-04-15T08:26:31;9.50;96.30
46608;DHT22;32330;51.936;7.184;2023-04-15T08:28:59;9.50;97.00
46608;DHT22;32330;51.936;7.184;2023-04-15T08:31:28;9.70;96.90
46608;DHT22;32330;51.936;7.184;2023-04-15T08:33:56;9.70;95.30
46608;DHT22;32330;51.936;7.184;2023-04-15T08:36:25;9.70;94.10
46608;DHT22;32330;51.936;7.184;2023-04-15T08:38:54;9.70;93.80
46608;DHT22;32330;51.936;7.184;2023-04-15T08:41:24;9.70;93.20
46608;DHT22;32330;51.936;7.184;2023-04-15T08:43:56;9.60;94.30
46608;DHT22;32330;51.936;7.184;2023-04-15T08:46:25;9.50;94.00
46608;DHT22;32330;51.936;7.184;2023-04-15T08:48:56;9.50;93.80
46608;DHT22;32330;51.936;7.184;2023-04-15T08:51:25;9.60;94.90
46608;DHT22;32330;51.936;7.184;2023-04-15T08:53:53;9.50;94.00
46608;DHT22;32330;51.936;7.184;2023-04-15T08:56:25;9.60;95.00
46608;DHT22;32330;51.936;7.184;2023-04-15T08:58:55;9.60;93.80
46608;DHT22;32330;51.936;7.184;2023-04-15T09:01:23;9.70;94.10
46608;DHT22;32330;51.936;7.184;2023-04-15T09:03:52;9.70;94.30
46608;DHT22;32330;51.936;7.184;2023-04-15T09:06:21;9.80;94.60
46608;DHT22;32330;51.936;7.184;2023-04-15T09:08:50;9.90;93.30
46608;DHT22;32330;51.936;7.184;2023-04-15T09:11:20;9.80;92.70
46608;DHT22;32330;51.936;7.184;2023-04-15T09:13:50;9.70;94.60
46608;DHT22;32330;51.936;7.184;2023-04-15T09:16:18;9.80;94.00
46608;DHT22;32330;51.936;7.184;2023-04-15T09:18:46;9.70;94.00
46608;DHT22;32330;51.936;7.184;2023-04-15T09:21:16;9.90;93.50
46608;DHT22;32330;51.936;7.184;2023-04-15T09:23:56;9.90;94.10
46608;DHT22;32330;51.936;7.184;2023-04-15T09:26:35;9.90;93.60
46608;DHT22;32330;51.936;7.184;2023-04-15T09:29:06;10.10;91.70
46608;DHT22;32330;51.936;7.184;2023-04-15T09:31:35;10.10;90.80
46608;DHT22;32330;51.936;7.184;2023-04-15T09:34:04;10.20;87.30
46608;DHT22;32330;51.936;7.184;2023-04-15T09:36:51;10.10;89.40
46608;DHT22;32330;51.936;7.184;2023-04-15T09:39:20;10.30;86.50
46608;DHT22;32330;51.936;7.184;2023-04-15T09:42:03;10.60;86.00
46608;DHT22;32330;51.936;7.184;2023-04-15T09:44:34;10.70;81.90
46608;DHT22;32330;51.936;7.184;2023-04-15T09:47:02;10.70;79.20
46608;DHT22;32330;51.936;7.184;2023-04-15T09:49:30;10.70;80.30
46608;DHT22;32330;51.936;7.184;2023-04-15T09:51:59;11.00;78.10
46608;DHT22;32330;51.936;7.184;2023-04-15T09:54:33;10.90;72.80
46608;DHT22;32330;51.936;7.184;2023-04-15T09:57:06;10.80;73.60
46608;DHT22;32330;51.936;7.184;2023-04-15T09:59:36;11.00;72.50
46608;DHT22;32330;51.936;7.184;2023-04-15T10:02:04;11.00;69.80
46608;DHT22;32330;51.936;7.184;2023-04-15T10:04:35;10.70;75.20
46608;DHT22;32330;51.936;7.184;2023-04-15T10:07:07;10.60;78.50
46608;DHT22;32330;51.936;7.184;2023-04-15T10:09:37;10.60;78.40
46608;DHT22;32330;51.936;7.184;2023-04-15T10:12:06;10.50;79.70
46608;DHT22;32330;51.936;7.184;2023-04-15T10:14:36;10.50;80.00
46608;DHT22;32330;51.936;7.184;2023-04-15T10:17:06;10.70;78.70
46608;DHT22;32330;51.936;7.184;2023-04-15T10:19:36;10.80;75.70
46608;DHT22;32330;51.936;7.184;2023-04-15T10:22:05;10.70;73.60
46608;DHT22;32330;51.936;7.184;2023-04-15T10:24:34;10.70;77.90
46608;DHT22;32330;51.936;7.184;2023-04-15T10:27:04;10.80;73.70
46608;DHT22;32330;51.936;7.184;2023-04-15T10:29:33;10.80;74.40
46608;DHT22;32330;51.936;7.184;2023-04-15T10:32:03;10.80;73.20
46608;DHT22;32330;51.936;7.184;2023-04-15T10:34:32;10.80;70.40
46608;DHT22;32330;51.936;7.184;2023-04-15T10:37:02;10.80;75.30
46608;DHT22;32330;51.936;7.184;2023-04-15T10:39:42;10.80;74.80
46608;DHT22;32330;51.936;7.184;2023-04-15T10:42:12;10.80;71.50
46608;DHT22;32330;51.936;7.184;2023-04-15T10:44:43;10.80;70.20
46608;DHT22;32330;51.936;7.184;2023-04-15T10:47:14;10.80;72.90
46608;DHT22;32330;51.936;7.184;2023-04-15T10:49:46;10.80;71.90
46608;DHT22;32330;51.936;7.184;2023-04-15T10:52:16;10.80;72.60
46608;DHT22;32330;51.936;7.184;2023-04-15T10:54:44;10.70;73.70
46608;DHT22;32330;51.936;7.184;2023-04-15T10:57:15;10.60;74.70
46608;DHT22;32330;51.936;7.184;2023-04-15T11:00:10;10.70;75.20
46608;DHT22;32330;51.936;7.184;2023-04-15T11:02:45;10.60;78.20
46608;DHT22;32330;51.936;7.184;2023-04-15T11:05:15;10.60;76.50
46608;DHT22;32330;51.936;7.184;2023-04-15T11:07:52;10.50;76.40
46608;DHT22;32330;51.936;7.184;2023-04-15T11:10:51;10.60;76.80
46608;DHT22;32330;51.936;7.184;2023-04-15T11:13:22;10.50;79.10
46608;DHT22;32330;51.936;7.184;2023-04-15T11:15:54;10.60;78.80
46608;DHT22;32330;51.936;7.184;2023-04-15T11:18:26;10.60;78.20
46608;DHT22;32330;51.936;7.184;2023-04-15T11:20:57;10.70;79.00
46608;DHT22;32330;51.936;7.184;2023-04-15T11:23:31;10.60;77.40
46608;DHT22;32330;51.936;7.184;2023-04-15T11:26:01;10.70;75.70
46608;DHT22;32330;51.936;7.184;2023-04-15T11:28:32;10.70;76.00
46608;DHT22;32330;51.936;7.184;2023-04-15T11:31:06;10.70;77.00
46608;DHT22;32330;51.936;7.184;2023-04-15T11:33:43;10.60;75.30
46608;DHT22;32330;51.936;7.184;2023-04-15T11:36:46;10.60;77.50
46608;DHT22;32330;51.936;7.184;2023-04-15T11:40:11;10.60;75.90
46608;DHT22;32330;51.936;7.184;2023-04-15T11:43:05;10.60;73.30
46608;DHT22;32330;51.936;7.184;2023-04-15T11:49:29;10.90;71.10
46608;DHT22;32330;51.936;7.184;2023-04-15T11:51:58;11.00;69.60
46608;DHT22;32330;51.936;7.184;2023-04-15T11:54:30;11.00;67.70
46608;DHT22;32330;51.936;7.184;2023-04-15T11:56:58;11.20;67.10
46608;DHT22;32330;51.936;7.184;2023-04-15T11:59:40;11.20;67.90
46608;DHT22;32330;51.936;7.184;2023-04-15T12:02:12;11.40;65.90
46608;DHT22;32330;51.936;7.184;2023-04-15T12:04:43;11.20;65.60
46608;DHT22;32330;51.936;7.184;2023-04-15T12:07:11;11.10;70.40
46608;DHT22;32330;51.936;7.184;2023-04-15T12:09:41;11.20;72.60
46608;DHT22;32330;51.936;7.184;2023-04-15T12:12:10;11.30;70.70
46608;DHT22;32330;51.936;7.184;2023-04-15T12:14:39;11.30;70.50
46608;DHT22;32330;51.936;7.184;2023-04-15T12:17:09;11.20;67.70
46608;DHT22;32330;51.936;7.184;2023-04-15T12:19:39;11.20;66.60
46608;DHT22;32330;51.936;7.184;2023-04-15T12:22:10;11.20;64.40
46608;DHT22;32330;51.936;7.184;2023-04-15T12:24:39;11.10;65.30
46608;DHT22;32330;51.936;7.184;2023-04-15T12:27:08;11.10;64.20
46608;DHT22;32330;51.936;7.184;2023-04-15T12:29:39;11.00;64.30
46608;DHT22;32330;51.936;7.184;2023-04-15T12:32:09;11.00;65.00
46608;DHT22;32330;51.936;7.184;2023-04-15T12:34:40;10.90;64.30
46608;DHT22;32330;51.936;7.184;2023-04-15T12:37:10;11.10;63.40
46608;DHT22;32330;51.936;7.184;2023-04-15T12:39:41;11.00;64.70
46608;DHT22;32330;51.936;7.184;2023-04-15T12:42:16;11.10;62.90
46608;DHT22;32330;51.936;7.184;2023-04-15T12:44:48;11.10;63.70
46608;DHT22;32330;51.936;7.184;2023-04-15T12:47:17;11.10;65.80
46608;DHT22;32330;51.936;7.184;2023-04-15T12:49:44;11.10;67.20
46608;DHT22;32330;51.936;7.184;2023-04-15T12:52:13;10.80;70.60
46608;DHT22;32330;51.936;7.184;2023-04-15T12:54:41;10.80;75.30
46608;DHT22;32330;51.936;7.184;2023-04-15T12:57:08;10.90;72.60
46608;DHT22;32330;51.936;7.184;2023-04-15T12:59:38;10.90;72.30
46608;DHT22;32330;51.936;7.184;2023-04-15T13:02:08;11.00;71.10
46608;DHT22;32330;51.936;7.184;2023-04-15T13:04:35;11.00;73.80
46608;DHT22;32330;51.936;7.184;2023-04-15T13:07:05;11.10;73.20
46608;DHT22;32330;51.936;7.184;2023-04-15T13:09:33;11.10;73.10
46608;DHT22;32330;51.936;7.184;2023-04-15T13:12:06;10.80;75.70
46608;DHT22;32330;51.936;7.184;2023-04-15T13:14:42;10.90;77.70
46608;DHT22;32330;51.936;7.184;2023-04-15T13:17:09;10.80;79.50
46608;DHT22;32330;51.936;7.184;2023-04-15T13:19:37;10.80;78.60
46608;DHT22;32330;51.936;7.184;2023-04-15T13:22:04;10.70;82.50
46608;DHT22;32330;51.936;7.184;2023-04-15T13:24:34;10.70;82.70
46608;DHT22;32330;51.936;7.184;2023-04-15T13:27:02;10.70;83.90
46608;DHT22;32330;51.936;7.184;2023-04-15T13:29:32;10.70;85.80
46608;DHT22;32330;51.936;7.184;2023-04-15T13:32:06;10.60;85.80
46608;DHT22;32330;51.936;7.184;2023-04-15T13:34:35;10.60;90.20
46608;DHT22;32330;51.936;7.184;2023-04-15T13:37:05;10.60;91.10
46608;DHT22;32330;51.936;7.184;2023-04-15T13:39:34;10.50;93.70
46608;DHT22;32330;51.936;7.184;2023-04-15T13:42:01;10.60;93.90
46608;DHT22;32330;51.936;7.184;2023-04-15T13:44:28;10.50;94.60
46608;DHT22;32330;51.936;7.184;2023-04-15T13:46:56;10.50;96.60
46608;DHT22;32330;51.936;7.184;2023-04-15T13:49:28;10.50;99.00
46608;DHT22;32330;51.936;7.184;2023-04-15T13:51:56;10.40;99.90
46608;DHT22;32330;51.936;7.184;2023-04-15T13:54:23;10.30;99.90
46608;DHT22;32330;51.936;7.184;2023-04-15T13:56:51;10.20;99.90
46608;DHT22;32330;51.936;7.184;2023-04-15T13:59:21;10.10;99.90
46608;DHT22;32330;51.936;7.184;2023-04-15T14:01:48;10.10;99.90
46608;DHT22;32330;51.936;7.184;2023-04-15T14:04:15;10.10;99.90
46608;DHT22;32330;51.936;7.184;2023-04-15T14:06:42;10.10;99.90
46608;DHT22;32330;51.936;7.184;2023-04-15T14:09:09;10.00;99.90
46608;DHT22;32330;51.936;7.184;2023-04-15T14:11:37;10.00;99.90
46608;DHT22;32330;51.936;7.184;2023-04-15T14:14:06;9.90;99.90
46608;DHT22;32330;51.936;7.184;2023-04-15T14:16:33;9.80;99.90
46608;DHT22;32330;51.936;7.184;2023-04-15T14:19:00;9.90;99.90
46608;DHT22;32330;51.936;7.184;2023-04-15T14:21:32;9.90;99.90
46608;DHT22;32330;51.936;7.184;2023-04-15T14:23:59;9.90;99.90
46608;DHT22;32330;51.936;7.184;2023-04-15T14:26:37;9.90;99.90
46608;DHT22;32330;51.936;7.184;2023-04-15T14:29:06;9.90;99.90
46608;DHT22;32330;51.936;7.184;2023-04-15T14:31:49;10.00;99.90
46608;DHT22;32330;51.936;7.184;2023-04-15T14:34:16;10.10;99.90
46608;DHT22;32330;51.936;7.184;2023-04-15T14:36:59;9.90;99.90
46608;DHT22;32330;51.936;7.184;2023-04-15T14:39:42;9.90;99.90
46608;DHT22;32330;51.936;7.184;2023-04-15T14:42:12;9.90;99.90
46608;DHT22;32330;51.936;7.184;2023-04-15T14:44:42;9.90;99.90
46608;DHT22;32330;51.936;7.184;2023-04-15T14:47:25;9.80;99.90
46608;DHT22;32330;51.936;7.184;2023-04-15T14:52:55;9.80;99.90
46608;DHT22;32330;51.936;7.184;2023-04-15T14:55:27;9.80;99.90
46608;DHT22;32330;51.936;7.184;2023-04-15T14:57:56;9.80;99.90
46608;DHT22;32330;51.936;7.184;2023-04-15T15:00:26;9.80;99.90
46608;DHT22;32330;51.936;7.184;2023-04-15T15:02:53;9.70;99.90
46608;DHT22;32330;51.936;7.184;2023-04-15T15:05:24;9.70;99.90
46608;DHT22;32330;51.936;7.184;2023-04-15T15:08:08;9.70;99.90
46608;DHT22;32330;51.936;7.184;2023-04-15T15:10:35;9.60;99.90
46608;DHT22;32330;51.936;7.184;2023-04-15T15:13:03;9.50;99.90
46608;DHT22;32330;51.936;7.184;2023-04-15T15:15:32;9.50;99.90
46608;DHT22;32330;51.936;7.184;2023-04-15T15:18:00;9.40;99.90
46608;DHT22;32330;51.936;7.184;2023-04-15T15:20:27;9.40;99.90
46608;DHT22;32330;51.936;7.184;2023-04-15T15:22:56;9.40;99.90
46608;DHT22;32330;51.936;7.184;2023-04-15T15:25:23;9.40;99.90
46608;DHT22;32330;51.936;7.184;2023-04-15T15:27:50;9.30;99.90
46608;DHT22;32330;51.936;7.184;2023-04-15T15:30:17;9.30;99.90
46608;DHT22;32330;51.936;7.184;2023-04-15T15:32:48;9.40;99.90
46608;DHT22;32330;51.936;7.184;2023-04-15T15:35:20;9.40;99.90
46608;DHT22;32330;51.936;7.184;2023-04-15T15:37:48;9.40;99.90
46608;DHT22;32330;51.936;7.184;2023-04-15T15:40:15;9.40;99.90
46608;DHT22;32330;51.936;7.184;2023-04-15T15:42:42;9.30;99.90
46608;DHT22;32330;51.936;7.184;2023-04-15T15:45:11;9.30;99.90
46608;DHT22;32330;51.936;7.184;2023-04-15T15:47:40;9.20;99.90
46608;DHT22;32330;51.936;7.184;2023-04-15T15:50:09;9.20;99.90
46608;DHT22;32330;51.936;7.184;2023-04-15T15:52:38;9.20;99.90
46608;DHT22;32330;51.936;7.184;2023-04-15T15:55:06;9.20;99.90
46608;DHT22;32330;51.936;7.184;2023-04-15T15:57:34;9.20;99.90
46608;DHT22;32330;51.936;7.184;2023-04-15T16:04:22;9.10;99.90
46608;DHT22;32330;51.936;7.184;2023-04-15T16:06:50;9.10;99.90
46608;DHT22;32330;51.936;7.184;2023-04-15T16:09:17;9.00;99.90
46608;DHT22;32330;51.936;7.184;2023-04-15T16:11:45;9.10;99.90
46608;DHT22;32330;51.936;7.184;2023-04-15T16:14:13;9.10;99.90
46608;DHT22;32330;51.936;7.184;2023-04-15T16:16:41;9.10;99.90
46608;DHT22;32330;51.936;7.184;2023-04-15T16:19:11;9.10;99.90
46608;DHT22;32330;51.936;7.184;2023-04-15T16:21:38;9.10;99.90
46608;DHT22;32330;51.936;7.184;2023-04-15T16:24:06;9.10;99.90
46608;DHT22;32330;51.936;7.184;2023-04-15T16:26:36;9.00;99.90
46608;DHT22;32330;51.936;7.184;2023-04-15T16:29:09;9.00;99.90
46608;DHT22;32330;51.936;7.184;2023-04-15T16:31:36;9.10;99.90
46608;DHT22;32330;51.936;7.184;2023-04-15T16:34:05;9.00;99.90
46608;DHT22;32330;51.936;7.184;2023-04-15T16:36:33;9.00;99.90
46608;DHT22;32330;51.936;7.184;2023-04-15T16:39:01;9.00;99.90
46608;DHT22;32330;51.936;7.184;2023-04-15T16:41:32;8.90;99.90
46608;DHT22;32330;51.936;7.184;2023-04-15T16:44:02;9.00;99.90
46608;DHT22;32330;51.936;7.184;2023-04-15T16:46:30;8.90;99.90
46608;DHT22;32330;51.936;7.184;2023-04-15T16:48:57;8.90;99.90
46608;DHT22;32330;51.936;7.184;2023-04-15T16:51:24;8.90;99.90
46608;DHT22;32330;51.936;7.184;2023-04-15T16:53:54;8.90;99.90
46608;DHT22;32330;51.936;7.184;2023-04-15T16:56:35;8.90;99.90
46608;DHT22;32330;51.936;7.184;2023-04-15T16:59:05;8.90;99.90
46608;DHT22;32330;51.936;7.184;2023-04-15T17:01:39;8.90;99.90
46608;DHT22;32330;51.936;7.184;2023-04-15T17:04:06;8.70;99.90
46608;DHT22;32330;51.936;7.184;2023-04-15T17:06:33;8.80;99.90
46608;DHT22;32330;51.936;7.184;2023-04-15T17:09:01;8.80;99.90
46608;DHT22;32330;51.936;7.184;2023-04-15T17:11:28;8.80;99.90
46608;DHT22;32330;51.936;7.184;2023-04-15T17:14:03;8.70;99.90
46608;DHT22;32330;51.936;7.184;2023-04-15T17:16:30;8.70;99.90
46608;DHT22;32330;51.936;7.184;2023-04-15T17:19:01;8.70;99.90
46608;DHT22;32330;51.936;7.184;2023-04-15T17:21:36;8.70;99.90
46608;DHT22;32330;51.936;7.184;2023-04-15T17:24:04;8.70;99.90
46608;DHT22;32330;51.936;7.184;2023-04-15T17:27:03;8.60;99.90
46608;DHT22;32330;51.936;7.184;2023-04-15T17:29:34;8.70;99.90
46608;DHT22;32330;51.936;7.184;2023-04-15T17:32:05;8.60;99.90
46608;DHT22;32330;51.936;7.184;2023-04-15T17:34:52;8.60;99.90
46608;DHT22;32330;51.936;7.184;2023-04-15T17:37:39;8.60;99.90
46608;DHT22;32330;51.936;7.184;2023-04-15T17:40:28;8.60;99.90
46608;DHT22;32330;51.936;7.184;2023-04-15T17:43:16;8.60;99.90
46608;DHT22;32330;51.936;7.184;2023-04-15T17:46:05;8.60;99.90
46608;DHT22;32330;51.936;7.184;2023-04-15T17:48:57;8.60;99.90
46608;DHT22;32330;51.936;7.184;2023-04-15T17:51:51;8.60;99.90
46608;DHT22;32330;51.936;7.184;2023-04-15T17:54:40;8.50;99.90
46608;DHT22;32330;51.936;7.184;2023-04-15T17:57:30;8.60;99.90
46608;DHT22;32330;51.936;7.184;2023-04-15T18:00:18;8.60;99.90
46608;DHT22;32330;51.936;7.184;2023-04-15T18:03:11;8.60;99.90
46608;DHT22;32330;51.936;7.184;2023-04-15T18:05:58;8.60;99.90
46608;DHT22;32330;51.936;7.184;2023-04-15T18:08:46;8.50;99.90
46608;DHT22;32330;51.936;7.184;2023-04-15T18:11:39;8.50;99.90
46608;DHT22;32330;51.936;7.184;2023-04-15T18:14:37;8.60;99.90
46608;DHT22;32330;51.936;7.184;2023-04-15T18:17:31;8.60;99.90
46608;DHT22;32330;51.936;7.184;2023-04-15T18:20:15;8.50;99.90
46608;DHT22;32330;51.936;7.184;2023-04-15T18:22:44;8.50;99.90
46608;DHT22;32330;51.936;7.184;2023-04-15T18:25:15;8.50;99.90
46608;DHT22;32330;51.936;7.184;2023-04-15T18:27:43;8.50;99.90
46608;DHT22;32330;51.936;7.184;2023-04-15T18:30:11;8.60;99.90
46608;DHT22;32330;51.936;7.184;2023-04-15T18:32:41;8.50;99.90
46608;DHT22;32330;51.936;7.184;2023-04-15T18:35:09;8.50;99.90
46608;DHT22;32330;51.936;7.184;2023-04-15T18:37:38;8.50;99.90
46608;DHT22;32330;51.936;7.184;2023-04-15T18:40:08;8.50;99.90
46608;DHT22;32330;51.936;7.184;2023-04-15T18:42:41;8.50;99.90
46608;DHT22;32330;51.936;7.184;2023-04-15T18:45:10;8.50;99.90
46608;DHT22;32330;51.936;7.184;2023-04-15T18:47:38;8.50;99.90
46608;DHT22;32330;51.936;7.184;2023-04-15T18:50:07;8.50;99.90
46608;DHT22;32330;51.936;7.184;2023-04-15T18:52:44;8.60;99.90
46608;DHT22;32330;51.936;7.184;2023-04-15T18:55:11;8.60;99.90
46608;DHT22;32330;51.936;7.184;2023-04-15T18:57:39;8.60;99.90
46608;DHT22;32330;51.936;7.184;2023-04-15T19:00:37;8.60;99.90
46608;DHT22;32330;51.936;7.184;2023-04-15T19:03:18;8.50;99.90
46608;DHT22;32330;51.936;7.184;2023-04-15T19:05:51;8.60;99.90
46608;DHT22;32330;51.936;7.184;2023-04-15T19:08:24;8.50;99.90
46608;DHT22;32330;51.936;7.184;2023-04-15T19:10:52;8.50;99.90
46608;DHT22;32330;51.936;7.184;2023-04-15T19:13:19;8.60;99.90
46608;DHT22;32330;51.936;7.184;2023-04-15T19:15:47;8.50;99.90
46608;DHT22;32330;51.936;7.184;2023-04-15T19:18:17;8.50;99.90
46608;DHT22;32330;51.936;7.184;2023-04-15T19:20:46;8.50;99.90
46608;DHT22;32330;51.936;7.184;2023-04-15T19:23:15;8.40;99.90
46608;DHT22;32330;51.936;7.184;2023-04-15T19:25:50;8.40;99.90
46608;DHT22;32330;51.936;7.184;2023-04-15T19:28:18;8.50;99.90
46608;DHT22;32330;51.936;7.184;2023-04-15T19:30:52;8.40;99.90
46608;DHT22;32330;51.936;7.184;2023-04-15T19:33:23;8.40;99.90
46608;DHT22;32330;51.936;7.184;2023-04-15T19:36:06;8.50;99.90
46608;DHT22;32330;51.936;7.184;2023-04-15T19:38:34;8.40;99.90
46608;DHT22;32330;51.936;7.184;2023-04-15T19:41:20;8.40;99.90
46608;DHT22;32330;51.936;7.184;2023-04-15T19:43:52;8.40;99.90
46608;DHT22;32330;51.936;7.184;2023-04-15T19:46:35;8.40;99.90
46608;DHT22;32330;51.936;7.184;2023-04-15T19:49:21;8.50;99.90
46608;DHT22;32330;51.936;7.184;2023-04-15T19:51:54;8.40;99.90
46608;DHT22;32330;51.936;7.184;2023-04-15T19:54:21;8.40;99.90
46608;DHT22;32330;51.936;7.184;2023-04-15T19:57:15;8.40;99.90
46608;DHT22;32330;51.936;7.184;2023-04-15T19:59:47;8.40;99.90
46608;DHT22;32330;51.936;7.184;2023-04-15T20:02:27;8.40;99.90
46608;DHT22;32330;51.936;7.184;2023-04-15T20:04:57;8.40;99.90